Time;durP1;ratioP1;P1;durP2;ratioP2;P2;SDS_P1;SDS_P2;PMS_P1;PMS_P2;Temp;Humidity;BMP_temperature;BMP_pressure;BME280_temperature;BME280_humidity;BME280_pressure;Samples;Min_cycle;Max_cycle;Signal;HPM_P1;HPM_P2
2021/09/26 00:00:44;;;;;;;8.70;7.90;;;19.00;99.90;;;;;;5034365;28;20221;-52
2021/09/26 00:03:09;;;;;;;8.53;7.83;;;19.10;99.90;;;;;;5039089;28;20185;-50
2021/09/26 00:05:35;;;;;;;8.63;7.83;;;19.30;99.90;;;;;;5032496;28;20272;-52
2021/09/26 00:08:01;;;;;;;8.80;8.00;;;19.20;99.90;;;;;;5028345;28;20213;-49
2021/09/26 00:10:26;;;;;;;9.30;8.50;;;19.20;99.90;;;;;;5035086;28;20193;-51
2021/09/26 00:12:52;;;;;;;9.20;8.40;;;19.20;99.90;;;;;;5034493;28;20213;-52
2021/09/26 00:15:20;;;;;;;8.80;7.90;;;19.20;99.90;;;;;;5028433;28;20186;-50
2021/09/26 00:17:47;;;;;;;8.43;7.72;;;19.40;99.90;;;;;;5034753;28;20200;-49
2021/09/26 00:20:15;;;;;;;8.20;7.50;;;19.30;99.90;;;;;;5029657;28;20189;-49
2021/09/26 00:22:41;;;;;;;8.43;7.72;;;19.30;99.90;;;;;;5026096;28;20186;-49
2021/09/26 00:25:08;;;;;;;7.80;7.20;;;19.20;99.90;;;;;;5035693;28;20611;-52
2021/09/26 00:27:34;;;;;;;7.80;7.10;;;19.00;99.90;;;;;;5031078;28;20472;-49
2021/09/26 00:29:59;;;;;;;7.53;6.93;;;19.00;99.90;;;;;;5024298;28;20197;-49
2021/09/26 00:32:25;;;;;;;8.30;7.50;;;19.00;99.90;;;;;;5029648;28;20471;-50
2021/09/26 00:34:50;;;;;;;8.47;7.67;;;19.00;99.90;;;;;;5030160;28;20225;-49
2021/09/26 00:37:16;;;;;;;8.37;7.60;;;19.00;99.90;;;;;;5028423;28;20182;-49
2021/09/26 00:39:42;;;;;;;8.13;7.50;;;19.10;99.90;;;;;;5027332;28;20261;-49
2021/09/26 00:42:08;;;;;;;7.70;7.00;;;18.90;99.90;;;;;;5029530;28;20196;-50
2021/09/26 00:44:34;;;;;;;8.18;7.47;;;18.90;99.90;;;;;;5025812;28;20502;-49
2021/09/26 00:47:00;;;;;;;9.98;8.93;;;18.90;99.90;;;;;;5029991;28;20190;-50
2021/09/26 00:49:25;;;;;;;10.03;7.93;;;18.90;99.90;;;;;;5016946;28;20297;-50
2021/09/26 00:51:52;;;;;;;7.80;7.03;;;19.00;99.90;;;;;;5030412;28;20202;-51
2021/09/26 00:54:18;;;;;;;8.50;7.80;;;19.00;99.90;;;;;;5009780;28;20189;-51
2021/09/26 00:56:49;;;;;;;8.07;7.38;;;19.00;99.90;;;;;;5023944;28;20269;-51
2021/09/26 00:59:16;;;;;;;8.55;7.75;;;19.00;99.90;;;;;;5011421;28;20203;-50
2021/09/26 01:01:41;;;;;;;7.90;7.30;;;19.00;99.90;;;;;;5026443;28;20193;-49
2021/09/26 01:04:08;;;;;;;8.73;7.93;;;19.10;99.90;;;;;;5028129;28;20186;-51
2021/09/26 01:06:47;;;;;;;9.32;6.72;;;19.00;99.90;;;;;;5026483;28;20674;-51
2021/09/26 01:09:33;;;;;;;7.47;6.72;;;18.90;99.90;;;;;;5026365;28;20248;-50
2021/09/26 01:12:17;;;;;;;6.85;6.25;;;19.10;99.90;;;;;;5029203;28;20213;-51
2021/09/26 01:14:52;;;;;;;7.85;7.15;;;18.90;99.90;;;;;;5016527;28;20718;-51
2021/09/26 01:17:33;;;;;;;8.23;7.15;;;19.00;99.90;;;;;;5021812;28;20188;-50
2021/09/26 01:20:33;;;;;;;8.05;7.45;;;19.00;99.90;;;;;;5021434;28;20205;-51
2021/09/26 01:23:21;;;;;;;8.07;7.38;;;19.00;99.90;;;;;;5020973;28;20527;-51
2021/09/26 01:26:16;;;;;;;8.23;7.22;;;19.00;99.90;;;;;;5023993;28;20186;-50
2021/09/26 01:28:58;;;;;;;8.55;7.85;;;19.00;99.90;;;;;;5024082;28;20210;-50
2021/09/26 01:31:40;;;;;;;7.10;6.47;;;19.00;99.90;;;;;;5029255;28;20216;-50
2021/09/26 01:34:23;;;;;;;8.05;6.63;;;19.00;99.90;;;;;;5034640;28;20202;-51
2021/09/26 01:36:55;;;;;;;7.55;6.95;;;19.00;99.90;;;;;;5025426;28;20190;-51
2021/09/26 01:39:25;;;;;;;8.05;6.60;;;19.00;99.90;;;;;;5026514;28;20233;-50
2021/09/26 01:42:14;;;;;;;7.88;7.18;;;19.00;99.90;;;;;;5027805;28;20179;-50
2021/09/26 01:44:48;;;;;;;7.20;6.55;;;18.80;99.90;;;;;;5009310;28;20249;-50
2021/09/26 01:47:19;;;;;;;8.55;7.75;;;18.90;99.90;;;;;;5033924;28;20281;-50
2021/09/26 01:49:49;;;;;;;7.22;6.63;;;18.70;99.90;;;;;;5030761;28;20229;-50
2021/09/26 01:52:24;;;;;;;8.63;7.05;;;18.70;99.90;;;;;;5034952;28;20210;-50
2021/09/26 01:54:50;;;;;;;7.25;6.65;;;18.70;99.90;;;;;;5037467;28;20188;-51
2021/09/26 01:57:20;;;;;;;7.43;6.73;;;18.60;99.90;;;;;;5032461;28;20383;-50
2021/09/26 01:59:54;;;;;;;7.43;6.72;;;18.60;99.90;;;;;;5037899;28;20469;-50
2021/09/26 02:02:21;;;;;;;8.27;7.47;;;18.60;99.90;;;;;;5032592;28;20246;-51
2021/09/26 02:04:51;;;;;;;8.18;7.47;;;18.60;99.90;;;;;;5033140;28;20205;-49
2021/09/26 02:07:18;;;;;;;8.25;7.00;;;18.50;99.90;;;;;;5029386;28;20552;-51
2021/09/26 02:09:46;;;;;;;7.22;6.43;;;18.50;99.90;;;;;;5032530;28;20221;-50
2021/09/26 02:12:13;;;;;;;8.25;7.47;;;18.50;99.90;;;;;;5037022;28;20215;-50
2021/09/26 02:14:41;;;;;;;7.57;6.88;;;18.40;99.90;;;;;;5029502;28;20214;-49
2021/09/26 02:17:07;;;;;;;7.78;7.18;;;18.30;99.90;;;;;;5029974;28;20248;-51
2021/09/26 02:19:35;;;;;;;8.68;7.80;;;18.40;99.90;;;;;;5034074;28;20671;-51
2021/09/26 02:22:03;;;;;;;8.23;7.35;;;18.40;99.90;;;;;;5029857;28;20666;-50
2021/09/26 02:24:29;;;;;;;7.85;7.10;;;18.30;99.90;;;;;;5032326;28;20725;-51
2021/09/26 02:26:55;;;;;;;7.40;6.70;;;18.30;99.90;;;;;;5032517;28;20245;-50
2021/09/26 02:29:21;;;;;;;8.60;7.53;;;18.30;99.90;;;;;;5031584;28;20609;-50
2021/09/26 02:31:46;;;;;;;8.27;7.57;;;18.30;99.90;;;;;;5032010;28;20561;-50
2021/09/26 02:34:12;;;;;;;7.90;7.20;;;18.20;99.90;;;;;;5032344;28;20289;-51
2021/09/26 02:36:37;;;;;;;7.67;7.07;;;18.20;99.90;;;;;;5030809;28;20187;-50
2021/09/26 02:39:04;;;;;;;7.77;7.07;;;18.20;99.90;;;;;;5022336;28;20210;-50
2021/09/26 02:41:40;;;;;;;8.50;7.40;;;18.20;99.90;;;;;;5031358;28;20681;-49
2021/09/26 02:44:31;;;;;;;8.00;7.20;;;18.30;99.90;;;;;;5026429;28;20583;-50
2021/09/26 02:47:06;;;;;;;8.95;7.38;;;18.20;99.90;;;;;;5026318;28;20193;-51
2021/09/26 02:49:32;;;;;;;7.15;6.55;;;18.00;99.90;;;;;;5031684;28;20189;-50
2021/09/26 02:51:58;;;;;;;8.73;7.90;;;17.90;99.90;;;;;;5031966;28;20198;-50
2021/09/26 02:54:25;;;;;;;7.65;7.05;;;17.80;99.90;;;;;;5037443;28;20266;-51
2021/09/26 02:56:51;;;;;;;7.63;6.85;;;17.50;99.90;;;;;;5036087;28;20280;-50
2021/09/26 02:59:19;;;;;;;7.68;6.90;;;17.60;99.90;;;;;;5029865;28;20198;-50
2021/09/26 03:01:50;;;;;;;8.73;7.85;;;17.70;99.90;;;;;;5030810;28;20190;-51
2021/09/26 03:04:16;;;;;;;8.45;7.63;;;17.80;99.90;;;;;;5030689;28;20182;-49
2021/09/26 03:06:42;;;;;;;8.83;7.93;;;17.90;99.90;;;;;;5030153;28;20182;-51
2021/09/26 03:09:07;;;;;;;9.03;8.23;;;17.90;99.90;;;;;;5031468;28;20540;-49
2021/09/26 03:11:33;;;;;;;8.40;7.60;;;17.60;99.90;;;;;;5034757;28;20209;-50
2021/09/26 03:13:58;;;;;;;8.43;7.63;;;17.50;99.90;;;;;;5027067;28;20183;-49
2021/09/26 03:16:24;;;;;;;7.87;7.17;;;17.60;99.90;;;;;;5031530;28;20190;-49
2021/09/26 03:18:50;;;;;;;8.03;7.23;;;17.50;99.90;;;;;;5030561;28;20237;-50
2021/09/26 03:21:15;;;;;;;9.27;8.23;;;17.80;99.90;;;;;;5030170;28;20186;-50
2021/09/26 03:23:41;;;;;;;8.63;7.90;;;17.60;99.90;;;;;;5030461;28;20662;-50
2021/09/26 03:26:07;;;;;;;7.70;7.00;;;17.50;99.90;;;;;;5031289;28;20182;-50
2021/09/26 03:28:33;;;;;;;8.60;7.80;;;17.70;99.90;;;;;;5033087;28;20694;-50
2021/09/26 03:30:59;;;;;;;8.20;7.20;;;17.20;99.90;;;;;;5028813;28;20694;-50
2021/09/26 03:33:24;;;;;;;11.27;7.97;;;17.30;99.90;;;;;;5031254;28;20186;-50
2021/09/26 03:35:50;;;;;;;9.80;8.37;;;17.20;99.90;;;;;;5034837;28;20201;-49
2021/09/26 03:38:15;;;;;;;9.30;7.50;;;17.50;99.90;;;;;;5030185;28;20260;-50
2021/09/26 03:40:41;;;;;;;8.73;7.83;;;17.20;99.90;;;;;;5030110;28;20189;-50
2021/09/26 03:43:07;;;;;;;7.78;7.07;;;17.40;99.90;;;;;;5030060;28;20556;-49
2021/09/26 03:45:33;;;;;;;8.33;7.50;;;17.40;99.90;;;;;;5030729;28;20194;-50
2021/09/26 03:47:59;;;;;;;8.90;8.00;;;17.30;99.90;;;;;;5030778;28;20221;-49
2021/09/26 03:50:25;;;;;;;8.20;7.40;;;17.40;99.90;;;;;;5030685;28;20440;-49
2021/09/26 03:52:51;;;;;;;8.23;7.43;;;17.30;99.90;;;;;;5029828;28;20210;-49
2021/09/26 03:55:17;;;;;;;8.20;7.40;;;17.30;99.90;;;;;;5036012;28;20540;-50
2021/09/26 03:57:44;;;;;;;8.23;7.53;;;17.00;99.90;;;;;;5030204;28;20945;-50
2021/09/26 04:00:15;;;;;;;11.35;7.25;;;17.00;99.90;;;;;;5028000;28;20192;-49
2021/09/26 04:02:41;;;;;;;9.48;7.45;;;17.00;99.90;;;;;;5029687;28;20186;-50
2021/09/26 04:05:07;;;;;;;11.23;8.60;;;17.00;99.90;;;;;;5030450;28;20634;-49
2021/09/26 04:07:33;;;;;;;8.57;7.40;;;16.70;99.90;;;;;;5024826;28;20958;-49
2021/09/26 04:09:59;;;;;;;10.45;7.28;;;16.80;99.90;;;;;;5027646;28;20248;-50
2021/09/26 04:12:25;;;;;;;9.17;7.90;;;17.20;99.90;;;;;;5032959;28;20210;-50
2021/09/26 04:14:51;;;;;;;8.67;7.77;;;17.20;99.90;;;;;;5022322;28;20243;-50
2021/09/26 04:17:16;;;;;;;8.60;7.90;;;16.90;99.90;;;;;;5028831;28;20802;-51
2021/09/26 04:19:42;;;;;;;8.77;7.43;;;16.90;99.90;;;;;;5030087;28;20178;-51
2021/09/26 04:22:08;;;;;;;8.27;7.57;;;16.90;99.90;;;;;;5036615;28;20273;-50
2021/09/26 04:24:34;;;;;;;8.50;7.70;;;16.90;99.90;;;;;;5027320;28;20294;-50
2021/09/26 04:26:59;;;;;;;8.40;7.30;;;16.80;99.90;;;;;;5033574;28;20189;-50
2021/09/26 04:29:25;;;;;;;8.07;7.40;;;17.00;99.90;;;;;;5030265;28;20210;-52
2021/09/26 04:31:51;;;;;;;8.13;7.33;;;17.00;99.90;;;;;;5034213;28;20476;-51
2021/09/26 04:34:17;;;;;;;9.02;8.13;;;16.90;99.90;;;;;;5029416;28;20198;-51
2021/09/26 04:36:43;;;;;;;10.93;7.90;;;17.00;99.90;;;;;;5033533;28;20551;-51
2021/09/26 04:39:08;;;;;;;9.10;8.20;;;16.80;99.90;;;;;;5025079;28;20210;-52
2021/09/26 04:41:34;;;;;;;9.37;8.00;;;16.90;99.90;;;;;;5029974;28;20203;-50
2021/09/26 04:44:00;;;;;;;9.30;8.40;;;17.00;99.90;;;;;;5034247;28;20309;-50
2021/09/26 04:46:25;;;;;;;10.50;8.87;;;16.80;99.90;;;;;;5043579;28;20184;-50
2021/09/26 04:48:51;;;;;;;8.73;7.97;;;16.70;99.90;;;;;;5035819;28;20574;-50
2021/09/26 04:51:17;;;;;;;9.30;8.40;;;16.80;99.90;;;;;;5030336;28;20199;-50
2021/09/26 04:53:42;;;;;;;10.00;8.20;;;16.60;99.90;;;;;;5032540;28;20186;-50
2021/09/26 04:56:08;;;;;;;8.17;7.37;;;16.70;99.90;;;;;;5040182;28;20226;-50
2021/09/26 04:58:34;;;;;;;9.43;8.50;;;16.70;99.90;;;;;;5032414;28;20725;-50
2021/09/26 05:00:59;;;;;;;8.33;7.53;;;16.70;99.90;;;;;;5026721;28;20186;-50
2021/09/26 05:03:25;;;;;;;8.33;7.53;;;16.80;99.90;;;;;;5029827;28;20194;-51
2021/09/26 05:05:50;;;;;;;8.57;7.87;;;16.70;99.90;;;;;;5029444;28;20190;-51
2021/09/26 05:08:16;;;;;;;9.37;8.47;;;16.80;99.90;;;;;;5029967;28;20210;-50
2021/09/26 05:10:41;;;;;;;8.47;7.67;;;16.70;99.90;;;;;;5027077;28;20190;-50
2021/09/26 05:13:07;;;;;;;9.13;8.33;;;16.80;99.90;;;;;;5029265;28;20610;-50
2021/09/26 05:15:33;;;;;;;8.70;7.90;;;16.90;99.90;;;;;;5029368;28;20221;-51
2021/09/26 05:17:58;;;;;;;10.53;8.40;;;16.70;99.90;;;;;;5029516;28;20208;-50
2021/09/26 05:20:24;;;;;;;8.87;7.93;;;16.60;99.90;;;;;;5029433;28;20190;-50
2021/09/26 05:22:50;;;;;;;9.30;8.50;;;16.80;99.90;;;;;;5026833;28;20421;-51
2021/09/26 05:25:16;;;;;;;8.30;7.60;;;16.80;99.90;;;;;;5029550;28;20674;-51
2021/09/26 05:27:42;;;;;;;8.68;7.85;;;16.70;99.90;;;;;;5029949;28;20207;-50
2021/09/26 05:30:08;;;;;;;10.00;9.10;;;16.40;99.90;;;;;;5025623;28;20243;-50
2021/09/26 05:32:35;;;;;;;8.75;7.97;;;16.80;99.90;;;;;;5033587;28;20202;-52
2021/09/26 05:35:01;;;;;;;9.00;8.00;;;16.80;99.90;;;;;;5033488;28;20201;-51
2021/09/26 05:37:27;;;;;;;9.30;8.40;;;16.60;99.90;;;;;;5031005;28;20194;-51
2021/09/26 05:39:52;;;;;;;9.23;7.70;;;16.90;99.90;;;;;;5031275;28;20186;-51
2021/09/26 05:42:18;;;;;;;9.57;8.47;;;16.60;99.90;;;;;;5033907;28;20225;-51
2021/09/26 05:44:43;;;;;;;9.87;8.90;;;16.50;99.90;;;;;;5030734;28;20185;-50
2021/09/26 05:47:09;;;;;;;10.90;8.53;;;16.50;99.90;;;;;;5037775;28;20221;-50
2021/09/26 05:49:36;;;;;;;14.47;8.60;;;16.20;99.90;;;;;;5033271;28;20650;-52
2021/09/26 05:52:04;;;;;;;9.07;8.18;;;16.50;99.90;;;;;;5036391;28;20214;-52
2021/09/26 05:54:31;;;;;;;9.15;8.05;;;16.50;99.90;;;;;;5034258;28;20283;-51
2021/09/26 05:56:57;;;;;;;10.70;8.93;;;16.80;99.90;;;;;;5032843;28;20277;-50
2021/09/26 05:59:22;;;;;;;11.80;9.00;;;16.30;99.90;;;;;;5028426;28;20297;-50
2021/09/26 06:01:48;;;;;;;10.50;8.87;;;16.50;99.90;;;;;;5029568;28;20643;-52
2021/09/26 06:04:13;;;;;;;9.07;8.20;;;16.40;99.90;;;;;;5031273;28;20202;-52
2021/09/26 06:06:39;;;;;;;8.90;8.10;;;16.50;99.90;;;;;;5033266;28;20201;-50
2021/09/26 06:09:04;;;;;;;9.70;8.80;;;16.40;99.90;;;;;;5030853;28;20213;-51
2021/09/26 06:11:30;;;;;;;9.77;8.80;;;16.60;99.90;;;;;;5032721;28;20687;-51
2021/09/26 06:13:56;;;;;;;9.20;8.30;;;16.70;99.90;;;;;;5029154;28;20265;-50
2021/09/26 06:16:21;;;;;;;8.70;7.90;;;17.00;99.90;;;;;;5029931;28;20659;-50
2021/09/26 06:18:47;;;;;;;9.37;8.10;;;16.80;99.90;;;;;;5032206;28;20206;-50
2021/09/26 06:21:12;;;;;;;9.03;7.97;;;16.70;99.90;;;;;;5037401;28;20186;-49
2021/09/26 06:23:38;;;;;;;8.80;7.90;;;17.00;99.90;;;;;;5032044;28;20198;-51
2021/09/26 06:26:04;;;;;;;9.07;8.17;;;17.10;99.90;;;;;;5032926;28;20226;-51
2021/09/26 06:28:29;;;;;;;9.90;8.23;;;17.30;99.90;;;;;;5031816;28;20565;-51
2021/09/26 06:30:55;;;;;;;10.50;8.90;;;17.30;99.90;;;;;;5040015;28;20182;-51
2021/09/26 06:33:21;;;;;;;9.93;8.60;;;17.30;99.90;;;;;;5034677;28;20297;-52
2021/09/26 06:35:46;;;;;;;10.73;8.13;;;17.10;99.90;;;;;;5030974;28;20240;-52
2021/09/26 06:38:12;;;;;;;10.00;9.00;;;17.20;99.90;;;;;;5028195;28;20209;-51
2021/09/26 06:40:37;;;;;;;11.70;8.43;;;17.30;99.90;;;;;;5031403;28;20190;-52
2021/09/26 06:43:03;;;;;;;9.00;8.27;;;17.50;99.90;;;;;;5031898;28;20190;-52
2021/09/26 06:45:29;;;;;;;10.23;8.30;;;17.60;99.90;;;;;;5033846;28;20201;-50
2021/09/26 06:47:55;;;;;;;9.10;8.20;;;17.70;99.90;;;;;;5037024;28;20205;-51
2021/09/26 06:50:20;;;;;;;8.27;7.57;;;18.10;99.90;;;;;;5032111;28;20447;-51
2021/09/26 06:52:46;;;;;;;8.90;8.13;;;18.10;99.90;;;;;;5029929;28;20295;-52
2021/09/26 06:55:12;;;;;;;9.83;8.80;;;18.30;99.90;;;;;;5027373;28;20179;-52
2021/09/26 06:57:37;;;;;;;8.63;7.75;;;18.60;99.90;;;;;;5031374;28;20280;-52
2021/09/26 07:00:07;;;;;;;7.77;7.03;;;18.70;99.90;;;;;;5027792;28;20273;-51
2021/09/26 07:02:33;;;;;;;8.40;7.70;;;18.90;99.90;;;;;;5023861;28;20174;-52
2021/09/26 07:04:59;;;;;;;9.43;8.50;;;19.10;99.90;;;;;;5031306;28;20645;-51
2021/09/26 07:07:24;;;;;;;8.23;7.40;;;19.30;99.90;;;;;;5024904;28;20213;-52
2021/09/26 07:09:51;;;;;;;7.40;6.70;;;19.40;99.90;;;;;;5029155;28;20856;-51
2021/09/26 07:12:18;;;;;;;8.30;7.50;;;19.50;99.90;;;;;;5031742;28;20611;-51
2021/09/26 07:14:44;;;;;;;7.72;7.13;;;19.60;99.90;;;;;;5025174;28;20186;-52
2021/09/26 07:17:10;;;;;;;8.02;7.22;;;19.80;99.90;;;;;;5031288;28;20277;-51
2021/09/26 07:19:36;;;;;;;7.53;6.83;;;20.00;99.90;;;;;;5031427;28;20273;-52
2021/09/26 07:22:02;;;;;;;8.40;7.60;;;20.50;99.90;;;;;;5029081;28;20190;-53
2021/09/26 07:24:28;;;;;;;7.78;7.07;;;20.90;99.90;;;;;;5030630;28;20480;-52
2021/09/26 07:26:54;;;;;;;9.73;8.30;;;21.40;99.90;;;;;;5037460;28;20215;-51
2021/09/26 07:29:19;;;;;;;8.00;7.27;;;21.80;99.90;;;;;;5027168;28;20206;-51
2021/09/26 07:31:46;;;;;;;7.57;7.00;;;22.20;99.90;;;;;;5031067;28;20249;-51
2021/09/26 07:34:12;;;;;;;8.97;8.00;;;22.30;99.90;;;;;;5037161;28;20565;-51
2021/09/26 07:36:37;;;;;;;8.70;6.90;;;22.30;99.90;;;;;;5031444;28;20437;-50
2021/09/26 07:39:04;;;;;;;7.40;6.70;;;22.40;99.90;;;;;;5027686;28;20707;-51
2021/09/26 07:41:30;;;;;;;8.73;7.73;;;22.40;99.90;;;;;;5030353;28;20273;-51
2021/09/26 07:43:56;;;;;;;8.30;7.50;;;22.40;99.90;;;;;;5033753;28;20883;-51
2021/09/26 07:46:22;;;;;;;7.40;6.80;;;22.40;99.90;;;;;;5030897;28;20651;-51
2021/09/26 07:48:50;;;;;;;7.73;6.83;;;22.40;99.90;;;;;;5032879;28;20529;-51
2021/09/26 07:51:17;;;;;;;7.17;6.47;;;22.60;99.90;;;;;;5027922;28;20448;-51
2021/09/26 07:53:43;;;;;;;7.83;7.03;;;22.80;99.90;;;;;;5032323;28;20518;-50
2021/09/26 07:56:08;;;;;;;8.73;7.83;;;22.90;99.90;;;;;;5028253;28;20532;-50
2021/09/26 07:58:34;;;;;;;8.10;6.73;;;22.90;99.90;;;;;;5023663;28;20460;-52
2021/09/26 08:01:01;;;;;;;8.23;7.30;;;22.80;99.90;;;;;;5018662;28;20614;-55
2021/09/26 08:03:27;;;;;;;8.23;6.60;;;22.60;99.90;;;;;;5027318;28;20571;-51
2021/09/26 08:05:54;;;;;;;10.20;7.33;;;22.30;99.90;;;;;;5024343;28;20938;-51
2021/09/26 08:08:20;;;;;;;7.93;6.40;;;22.10;99.90;;;;;;5027566;28;20460;-52
2021/09/26 08:10:46;;;;;;;8.20;6.50;;;22.00;99.90;;;;;;5030136;28;20666;-52
2021/09/26 08:13:11;;;;;;;6.93;6.30;;;22.10;99.90;;;;;;5026727;28;20305;-51
2021/09/26 08:15:37;;;;;;;7.23;6.63;;;22.20;99.90;;;;;;5026559;28;20189;-51
2021/09/26 08:18:03;;;;;;;7.53;5.90;;;22.40;99.90;;;;;;5024323;28;20272;-54
2021/09/26 08:20:28;;;;;;;6.93;6.00;;;22.60;99.90;;;;;;5027311;28;20289;-54
2021/09/26 08:22:54;;;;;;;8.97;6.67;;;22.80;99.90;;;;;;5027933;28;20675;-54
2021/09/26 08:25:22;;;;;;;6.40;5.80;;;22.90;99.90;;;;;;5029575;28;20276;-55
2021/09/26 08:27:49;;;;;;;11.97;6.37;;;23.00;99.90;;;;;;5025300;28;20461;-53
2021/09/26 08:30:16;;;;;;;7.23;6.17;;;23.10;99.90;;;;;;5026849;28;20460;-53
2021/09/26 08:32:42;;;;;;;7.10;6.53;;;23.20;99.90;;;;;;5027780;28;20471;-54
2021/09/26 08:35:09;;;;;;;7.37;6.60;;;23.10;99.90;;;;;;5022122;28;20467;-54
2021/09/26 08:37:35;;;;;;;7.07;6.47;;;23.00;99.90;;;;;;5020925;28;20460;-53
2021/09/26 08:40:02;;;;;;;8.23;7.50;;;23.00;99.90;;;;;;5025647;28;20445;-54
2021/09/26 08:42:27;;;;;;;8.80;7.20;;;22.70;99.90;;;;;;5028419;28;20186;-54
2021/09/26 08:44:54;;;;;;;7.80;7.00;;;22.70;99.90;;;;;;5024572;28;20949;-54
2021/09/26 08:47:20;;;;;;;7.60;6.67;;;22.70;99.90;;;;;;5028421;28;20679;-55
2021/09/26 08:49:46;;;;;;;8.00;6.33;;;22.80;99.90;;;;;;5027024;28;20444;-54
2021/09/26 08:52:12;;;;;;;9.53;6.87;;;22.90;99.90;;;;;;5024147;28;20500;-55
2021/09/26 08:54:39;;;;;;;7.17;6.47;;;23.10;99.90;;;;;;5022587;28;20531;-51
2021/09/26 08:57:05;;;;;;;6.93;6.33;;;23.40;99.90;;;;;;5023847;28;20198;-54
2021/09/26 08:59:31;;;;;;;7.67;6.93;;;23.60;99.90;;;;;;5017855;28;20949;-53
2021/09/26 09:01:57;;;;;;;7.60;6.30;;;23.50;99.90;;;;;;5028913;28;20782;-54
2021/09/26 09:04:37;;;;;;;7.40;6.80;;;23.50;99.90;;;;;;5034212;28;20550;-52
2021/09/26 09:07:05;;;;;;;8.03;6.43;;;23.40;99.90;;;;;;5032788;28;20265;-54
2021/09/26 09:09:31;;;;;;;7.00;6.13;;;23.30;99.90;;;;;;5027984;28;20436;-54
2021/09/26 09:12:02;;;;;;;9.47;6.10;;;23.20;99.90;;;;;;5032083;28;20475;-53
2021/09/26 09:14:52;;;;;;;11.10;7.50;;;23.10;99.90;;;;;;5026784;28;20540;-51
2021/09/26 09:17:44;;;;;;;7.63;6.93;;;22.90;99.90;;;;;;5033965;28;20439;-50
2021/09/26 09:20:17;;;;;;;12.50;6.37;;;22.70;99.90;;;;;;5030355;28;20483;-57
2021/09/26 09:22:47;;;;;;;6.93;6.23;;;22.60;99.90;;;;;;5021164;28;20452;-57
2021/09/26 09:25:43;;;;;;;6.87;6.27;;;22.70;99.90;;;;;;5031052;28;20447;-53
2021/09/26 09:28:11;;;;;;;8.00;6.70;;;23.00;99.90;;;;;;5041128;28;20958;-56
2021/09/26 09:30:49;;;;;;;8.17;6.60;;;23.10;99.90;;;;;;5025030;28;20480;-50
2021/09/26 09:33:16;;;;;;;7.37;6.77;;;23.30;99.90;;;;;;5033230;28;20471;-49
2021/09/26 09:35:46;;;;;;;7.10;6.50;;;23.60;99.90;;;;;;5035927;28;20811;-50
2021/09/26 09:38:15;;;;;;;7.33;6.73;;;23.70;99.10;;;;;;5026761;28;20454;-49
2021/09/26 09:40:41;;;;;;;9.00;8.20;;;23.80;98.20;;;;;;5031027;28;20475;-52
2021/09/26 09:43:07;;;;;;;9.40;8.50;;;23.80;97.70;;;;;;5025630;28;20946;-51
2021/09/26 09:45:45;;;;;;;8.03;7.33;;;23.60;98.60;;;;;;5022573;28;20179;-53
2021/09/26 09:48:17;;;;;;;8.60;7.83;;;23.60;98.90;;;;;;5026394;28;20216;-51
2021/09/26 09:50:53;;;;;;;8.63;7.93;;;23.50;99.00;;;;;;5030857;28;20440;-52
2021/09/26 09:53:29;;;;;;;11.57;8.20;;;23.40;99.40;;;;;;5020502;28;20476;-51
2021/09/26 09:56:21;;;;;;;9.40;8.50;;;23.20;99.40;;;;;;5027129;28;20478;-51
2021/09/26 09:58:48;;;;;;;9.20;8.05;;;23.00;99.80;;;;;;5024178;28;20548;-51
2021/09/26 10:01:26;;;;;;;8.97;8.20;;;22.90;99.90;;;;;;5028357;28;20190;-51
2021/09/26 10:03:53;;;;;;;9.10;8.30;;;22.80;99.90;;;;;;5032257;28;20858;-51
2021/09/26 10:06:24;;;;;;;9.10;8.30;;;22.80;99.90;;;;;;5035058;28;20607;-51
2021/09/26 10:08:49;;;;;;;9.70;8.57;;;22.70;99.90;;;;;;5031610;28;20475;-51
2021/09/26 10:11:15;;;;;;;9.43;8.43;;;22.60;99.90;;;;;;5037524;28;20444;-51
2021/09/26 10:13:41;;;;;;;8.83;8.10;;;22.60;99.90;;;;;;5028181;28;20449;-51
2021/09/26 10:16:09;;;;;;;9.50;8.60;;;22.40;99.90;;;;;;5025063;28;20247;-51
2021/09/26 10:18:36;;;;;;;9.05;8.27;;;22.30;99.90;;;;;;5031750;28;20206;-51
2021/09/26 10:21:06;;;;;;;9.60;8.80;;;22.00;99.90;;;;;;5032175;28;20268;-51
2021/09/26 10:23:33;;;;;;;9.88;8.98;;;21.90;99.90;;;;;;5029945;28;20183;-50
2021/09/26 10:26:00;;;;;;;10.60;9.60;;;21.90;99.90;;;;;;5034522;28;20182;-51
2021/09/26 10:28:29;;;;;;;9.57;8.70;;;21.80;99.90;;;;;;5029111;28;20318;-51
2021/09/26 10:31:02;;;;;;;10.27;9.30;;;21.70;99.90;;;;;;5028157;28;20182;-51
2021/09/26 10:33:28;;;;;;;9.90;9.00;;;21.80;99.90;;;;;;5029541;28;20253;-51
2021/09/26 10:35:56;;;;;;;9.20;8.33;;;21.70;99.90;;;;;;5018257;28;20229;-51
2021/09/26 10:38:23;;;;;;;10.30;9.40;;;21.70;99.90;;;;;;5025379;28;20797;-51
2021/09/26 10:40:49;;;;;;;11.25;10.25;;;21.80;99.90;;;;;;5031644;28;20185;-51
2021/09/26 10:43:17;;;;;;;10.00;9.10;;;21.80;99.90;;;;;;5028454;28;20190;-51
2021/09/26 10:45:43;;;;;;;10.15;9.13;;;21.90;99.90;;;;;;5024795;28;20190;-53
2021/09/26 10:48:09;;;;;;;9.13;8.23;;;22.10;99.90;;;;;;5028278;28;20213;-50
2021/09/26 10:50:37;;;;;;;49.93;40.63;;;22.20;99.90;;;;;;5028207;28;20249;-52
2021/09/26 10:53:12;;;;;;;9.82;8.93;;;22.10;99.90;;;;;;5022363;28;20762;-52
2021/09/26 10:55:39;;;;;;;9.35;8.55;;;22.20;99.90;;;;;;5025111;28;20205;-53
2021/09/26 10:58:05;;;;;;;9.65;8.77;;;22.20;99.90;;;;;;5029893;28;20206;-51
2021/09/26 11:01:14;;;;;;;12.03;10.83;;;21.90;99.90;;;;;;5025644;28;20198;-53
2021/09/26 11:03:42;;;;;;;8.98;8.18;;;21.80;99.90;;;;;;5010518;28;20214;-52
2021/09/26 11:06:28;;;;;;;9.15;7.70;;;21.90;99.90;;;;;;5028058;28;21309;-52
2021/09/26 11:08:58;;;;;;;9.50;8.65;;;21.90;99.90;;;;;;5028812;28;20615;-51
2021/09/26 11:11:36;;;;;;;9.82;8.93;;;21.90;99.90;;;;;;5027253;28;20186;-51
2021/09/26 11:14:02;;;;;;;8.70;8.00;;;21.80;99.90;;;;;;5032341;28;20200;-51
2021/09/26 11:16:50;;;;;;;8.98;8.18;;;21.70;99.90;;;;;;5030597;28;20186;-52
2021/09/26 11:19:16;;;;;;;8.88;7.97;;;21.70;99.90;;;;;;5023088;28;20199;-52
2021/09/26 11:21:47;;;;;;;9.63;8.75;;;21.70;99.90;;;;;;5022703;28;20245;-52
2021/09/26 11:24:23;;;;;;;8.93;8.23;;;21.60;99.90;;;;;;5029095;28;20190;-52
2021/09/26 11:27:08;;;;;;;9.00;8.02;;;21.60;99.90;;;;;;5025213;28;20212;-52
2021/09/26 11:29:41;;;;;;;11.20;9.90;;;21.50;99.90;;;;;;5024700;28;20572;-52
2021/09/26 11:32:31;;;;;;;9.73;8.60;;;21.40;99.90;;;;;;5030796;28;20206;-52
2021/09/26 11:35:04;;;;;;;8.75;8.02;;;21.50;99.90;;;;;;5025184;28;20231;-53
2021/09/26 11:37:40;;;;;;;9.82;8.80;;;21.60;99.90;;;;;;5027188;28;20208;-54
2021/09/26 11:40:07;;;;;;;9.00;8.20;;;21.50;99.90;;;;;;5023748;28;20186;-52
2021/09/26 11:42:34;;;;;;;8.98;8.10;;;21.50;99.90;;;;;;5021800;28;20552;-52
2021/09/26 11:45:04;;;;;;;8.70;7.97;;;21.60;99.90;;;;;;5025092;28;20262;-51
2021/09/26 11:47:30;;;;;;;8.48;7.68;;;21.60;99.90;;;;;;5029846;28;20206;-52
2021/09/26 11:50:12;;;;;;;8.30;7.60;;;21.60;99.90;;;;;;5030606;28;20184;-52
2021/09/26 11:52:44;;;;;;;9.70;8.68;;;21.60;99.90;;;;;;5030619;28;20257;-51
2021/09/26 11:55:13;;;;;;;9.93;9.05;;;21.40;99.90;;;;;;5030106;28;20190;-52
2021/09/26 11:57:39;;;;;;;10.55;9.65;;;21.50;99.90;;;;;;5028933;28;20198;-51
2021/09/26 12:00:06;;;;;;;9.10;8.30;;;21.40;99.90;;;;;;5026576;28;20603;-51
2021/09/26 12:02:34;;;;;;;9.05;8.25;;;21.50;99.90;;;;;;5028084;28;20596;-53
2021/09/26 12:05:01;;;;;;;9.35;8.45;;;21.60;99.90;;;;;;5025167;28;20209;-52
2021/09/26 12:07:31;;;;;;;9.32;8.52;;;21.50;99.90;;;;;;5017582;28;20238;-52
2021/09/26 12:09:57;;;;;;;8.77;8.07;;;21.60;99.90;;;;;;5021308;28;20651;-52
2021/09/26 12:12:28;;;;;;;9.85;8.52;;;21.70;99.90;;;;;;5026713;28;20206;-52
2021/09/26 12:15:04;;;;;;;9.77;8.98;;;21.80;99.90;;;;;;5020203;28;20182;-52
2021/09/26 12:17:32;;;;;;;9.00;8.20;;;22.00;99.90;;;;;;5031802;28;20194;-52
2021/09/26 12:20:03;;;;;;;7.73;7.13;;;22.20;99.90;;;;;;5026383;28;20185;-52
2021/09/26 12:22:30;;;;;;;8.00;7.20;;;22.40;99.90;;;;;;5030041;28;20464;-53
2021/09/26 12:25:30;;;;;;;8.47;7.67;;;22.70;99.90;;;;;;5023618;28;20452;-53
2021/09/26 12:28:03;;;;;;;8.40;7.70;;;23.00;99.90;;;;;;5034540;28;20550;-52
2021/09/26 12:30:38;;;;;;;8.40;7.60;;;23.20;99.90;;;;;;5028544;28;20448;-53
2021/09/26 12:33:10;;;;;;;7.87;7.17;;;23.40;99.90;;;;;;5026188;28;20479;-51
2021/09/26 12:35:47;;;;;;;8.33;7.63;;;23.60;99.90;;;;;;5025053;28;20560;-51
2021/09/26 12:38:20;;;;;;;8.03;7.27;;;23.80;99.90;;;;;;5026240;28;20471;-51
2021/09/26 12:40:57;;;;;;;9.70;7.23;;;23.70;99.90;;;;;;5017681;28;20444;-52
2021/09/26 12:43:27;;;;;;;7.90;7.20;;;23.60;99.90;;;;;;5028084;28;20848;-51
2021/09/26 12:45:53;;;;;;;7.20;6.60;;;23.70;99.90;;;;;;5030839;28;21008;-51
2021/09/26 12:48:21;;;;;;;7.40;6.80;;;23.70;99.90;;;;;;5029462;28;20483;-51
2021/09/26 12:50:51;;;;;;;7.03;6.43;;;23.70;99.90;;;;;;5028483;28;20444;-52
2021/09/26 12:53:22;;;;;;;6.73;6.23;;;23.80;99.90;;;;;;5024062;28;20515;-51